createdAt,value
2022-11-25T00:09:32.208Z,97631.41
2022-11-25T00:19:34.524Z,97634.66
2022-11-25T00:29:36.998Z,97636.06
2022-11-25T00:39:39.583Z,97647.94
2022-11-25T00:49:46.577Z,97638.69
2022-11-25T00:59:49.554Z,97624.06
2022-11-25T01:09:51.912Z,97614.56
2022-11-25T01:19:54.306Z,97616.19
2022-11-25T01:29:56.691Z,97611.41
2022-11-25T01:39:59.196Z,97619.59
2022-11-25T01:50:06.399Z,97634.38
2022-11-25T02:00:10.876Z,97623.59
2022-11-25T02:10:22.057Z,97622.25
2022-11-25T02:20:25.454Z,97619.03
2022-11-25T02:30:27.884Z,97613.31
2022-11-25T02:40:30.856Z,97613.06
2022-11-25T02:50:33.169Z,97633.66
2022-11-25T03:00:35.750Z,97618.06
2022-11-25T03:10:39.020Z,97610.47
2022-11-25T03:20:41.723Z,97618.38
2022-11-25T03:30:44.506Z,97630.44
2022-11-25T03:40:48.298Z,97637.91
2022-11-25T03:50:50.865Z,97622.25
2022-11-25T04:00:53.475Z,97625.88
2022-11-25T04:10:56.201Z,97621.78
2022-11-25T04:20:58.745Z,97616.75
2022-11-25T04:31:01.195Z,97621.91
2022-11-25T04:41:03.867Z,97625.16
2022-11-25T04:51:06.365Z,97637.87
2022-11-25T05:01:08.898Z,97647.22
2022-11-25T05:11:11.335Z,97660.72
2022-11-25T05:21:13.899Z,97668.16
2022-11-25T05:31:16.584Z,97677.94
2022-11-25T05:41:19.112Z,97688.47
2022-11-25T05:51:22.360Z,97708.53
2022-11-25T06:01:25.135Z,97714.59
2022-11-25T06:11:28.020Z,97703.84
2022-11-25T06:21:30.392Z,97717.56
2022-11-25T06:31:32.996Z,97709.25
2022-11-25T06:41:35.681Z,97714.28
2022-11-25T06:51:38.355Z,97724.28
2022-11-25T07:01:41.039Z,97722.00
2022-11-25T07:11:43.781Z,97744.13
2022-11-25T07:21:47.220Z,97763.72
2022-11-25T07:31:49.877Z,97787.03
2022-11-25T07:41:54.277Z,97794.75
2022-11-25T07:52:00.289Z,97826.31
2022-11-25T08:02:03.254Z,97841.03
2022-11-25T08:12:06.165Z,97860.19
2022-11-25T08:22:09.199Z,97883.44
2022-11-25T08:32:12.163Z,97891.63
2022-11-25T08:42:14.853Z,97885.03
2022-11-25T08:52:17.632Z,97898.31
2022-11-25T09:02:21.329Z,97906.16
2022-11-25T09:12:25.199Z,97903.81
2022-11-25T09:22:28.095Z,97898.94
2022-11-25T09:32:30.975Z,97903.97
2022-11-25T09:43:10.919Z,97884.13
2022-11-25T09:53:55.194Z,97894.97
2022-11-25T10:04:14.595Z,97903.75
2022-11-25T10:14:42.567Z,97913.81
2022-11-25T10:24:45.709Z,97921.69
2022-11-25T10:34:59.237Z,97920.09
2022-11-25T10:45:03.040Z,97926.84
2022-11-25T10:55:15.374Z,97938.75
2022-11-25T11:05:30.473Z,97950.44
2022-11-25T11:15:50.307Z,97960.19
2022-11-25T11:26:06.352Z,97964.06
2022-11-25T11:36:45.634Z,97973.00
2022-11-25T11:47:01.355Z,97981.50
2022-11-25T11:57:38.811Z,97986.63
2022-11-25T12:08:08.273Z,98000.84
2022-11-25T12:18:33.776Z,97998.84
2022-11-25T12:28:44.747Z,98006.69
2022-11-25T12:39:03.070Z,98007.38
2022-11-25T12:49:14.818Z,98018.03
2022-11-25T12:59:42.673Z,98043.19
2022-11-25T13:10:03.573Z,98046.06
2022-11-25T13:20:27.966Z,98055.44
2022-11-25T13:30:33.665Z,98067.25
2022-11-25T13:40:39.920Z,98071.72
2022-11-25T13:51:09.628Z,98091.66
2022-11-25T14:01:29.787Z,98107.38
2022-11-25T14:11:49.608Z,98103.75
2022-11-25T14:22:13.195Z,98108.50
2022-11-25T14:32:40.279Z,98122.53
2022-11-25T14:42:46.935Z,98132.28
2022-11-25T14:52:51.000Z,98147.13
2022-11-25T15:02:59.581Z,98174.16
2022-11-25T15:13:13.809Z,98173.19
2022-11-25T15:23:24.029Z,98166.19
2022-11-25T15:33:29.683Z,98184.75
2022-11-25T15:43:45.894Z,98191.88
2022-11-25T15:53:54.957Z,98203.22
2022-11-25T16:04:30.095Z,98216.19
2022-11-25T16:14:36.657Z,98224.63
2022-11-25T16:24:41.545Z,98229.41
2022-11-25T16:34:46.211Z,98241.91
2022-11-25T16:44:52.028Z,98261.75
2022-11-25T16:54:55.198Z,98284.59
2022-11-25T17:05:00.344Z,98291.19
2022-11-25T17:15:06.198Z,98309.53
2022-11-25T17:25:12.929Z,98320.56
2022-11-25T17:35:21.104Z,98335.44
2022-11-25T17:45:24.494Z,98338.44
2022-11-25T17:55:27.720Z,98346.75
2022-11-25T18:05:30.255Z,98371.66
2022-11-25T18:15:35.262Z,98392.03
2022-11-25T18:25:40.616Z,98403.75
2022-11-25T18:35:44.459Z,98418.97
2022-11-25T18:45:47.336Z,98444.13
2022-11-25T18:55:50.830Z,98459.09
2022-11-25T19:05:59.772Z,98478.81
2022-11-25T19:16:14.282Z,98498.47
2022-11-25T19:26:22.341Z,98516.34
2022-11-25T19:36:28.953Z,98532.31
2022-11-25T19:46:52.510Z,98560.72
2022-11-25T19:56:56.643Z,98567.66
2022-11-25T20:06:59.445Z,98576.44
2022-11-25T20:17:02.237Z,98586.06
2022-11-25T20:27:05.131Z,98587.69
2022-11-25T20:37:09.690Z,98597.53
2022-11-25T20:47:15.419Z,98609.88
2022-11-25T20:57:18.310Z,98633.44
2022-11-25T21:07:21.118Z,98660.72
2022-11-25T21:17:24.204Z,98674.13
2022-11-25T21:27:26.918Z,98670.62
2022-11-25T21:37:33.418Z,98684.63
2022-11-25T21:47:36.152Z,98679.22
2022-11-25T21:57:39.517Z,98681.84
2022-11-25T22:07:42.581Z,98696.56
2022-11-25T22:17:46.039Z,98678.19
2022-11-25T22:27:49.584Z,98694.59
2022-11-25T22:37:55.192Z,98705.63
2022-11-25T22:47:58.793Z,98720.34
2022-11-25T22:58:02.352Z,98743.87
2022-11-25T23:08:22.283Z,98746.06
2022-11-25T23:18:40.038Z,98732.75
2022-11-25T23:28:42.615Z,98741.13
2022-11-25T23:38:49.616Z,98742.47
2022-11-25T23:49:01.635Z,98746.38
2022-11-25T23:59:04.174Z,98744.63
